Time;durP1;ratioP1;P1;durP2;ratioP2;P2;SDS_P1;SDS_P2;PMS_P1;PMS_P2;Temp;Humidity;BMP_temperature;BMP_pressure;BME280_temperature;BME280_humidity;BME280_pressure;Samples;Min_cycle;Max_cycle;Signal;HPM_P1;HPM_P2
2023/06/13 00:00:51;;;;;;;4.18;2.45;;;12.90;99.90;;;;;;6150513;23;20010;-80
2023/06/13 00:03:19;;;;;;;3.42;1.67;;;;;;;;;;6151873;23;20721;-77
2023/06/13 00:05:46;;;;;;;3.42;2.05;;;13.50;99.90;;;;;;6150771;23;20010;-78
2023/06/13 00:08:17;;;;;;;4.13;2.13;;;13.80;99.90;;;;;;6124676;23;20056;-78
2023/06/13 00:10:47;;;;;;;5.18;2.00;;;13.00;99.90;;;;;;6149010;23;20041;-77
2023/06/13 00:13:15;;;;;;;3.40;1.90;;;13.10;99.90;;;;;;6148293;23;20391;-77
2023/06/13 00:15:48;;;;;;;2.85;1.48;;;13.30;99.90;;;;;;6128355;23;20461;-79
2023/06/13 00:18:15;;;;;;;8.85;2.70;;;12.90;99.90;;;;;;6151112;23;20021;-81
2023/06/13 00:20:41;;;;;;;5.40;2.25;;;13.10;99.90;;;;;;6154884;23;20336;-78
2023/06/13 00:23:08;;;;;;;3.50;2.10;;;13.10;99.90;;;;;;6154788;23;20005;-80
2023/06/13 00:25:34;;;;;;;4.90;2.25;;;12.60;99.90;;;;;;6148896;23;20015;-78
2023/06/13 00:28:01;;;;;;;4.00;1.90;;;12.70;99.90;;;;;;6151901;23;20084;-78
2023/06/13 00:30:27;;;;;;;4.35;1.98;;;13.30;99.90;;;;;;6153468;23;20335;-78
2023/06/13 00:32:56;;;;;;;5.03;2.25;;;12.70;99.90;;;;;;6151852;23;20017;-79
2023/06/13 00:35:23;;;;;;;4.20;1.73;;;12.40;99.90;;;;;;6154531;23;20439;-79
2023/06/13 00:37:54;;;;;;;3.50;2.25;;;12.50;99.90;;;;;;6154398;23;20001;-78
2023/06/13 00:40:20;;;;;;;5.60;2.15;;;12.40;99.90;;;;;;6153505;23;20060;-77
2023/06/13 00:42:46;;;;;;;7.15;2.25;;;12.60;99.90;;;;;;6128372;23;20032;-78
2023/06/13 00:45:24;;;;;;;4.30;2.47;;;12.50;99.90;;;;;;6151394;23;19997;-81
2023/06/13 00:47:57;;;;;;;4.65;1.85;;;12.20;99.90;;;;;;6150974;23;20009;-79
2023/06/13 00:50:26;;;;;;;;;;;12.50;99.90;;;;;;6155130;23;20002;-79
2023/06/13 00:52:54;;;;;;;3.70;1.77;;;12.20;99.90;;;;;;6153454;23;19901;-80
2023/06/13 00:55:21;;;;;;;5.85;2.80;;;12.40;99.90;;;;;;6153612;23;20390;-78
2023/06/13 00:57:48;;;;;;;6.07;1.90;;;;;;;;;;6151032;23;20010;-79
2023/06/13 01:00:15;;;;;;;4.93;2.40;;;;;;;;;;6151910;23;20080;-80
2023/06/13 01:02:44;;;;;;;4.25;2.25;;;;;;;;;;6152806;23;20006;-78
2023/06/13 01:05:11;;;;;;;3.72;1.88;;;12.40;99.90;;;;;;6149421;23;20006;-79
2023/06/13 01:07:38;;;;;;;5.93;2.00;;;12.30;99.90;;;;;;6150095;23;20067;-78
2023/06/13 01:10:05;;;;;;;4.03;2.15;;;12.90;99.90;;;;;;6152634;23;20009;-80
2023/06/13 01:12:36;;;;;;;3.45;1.83;;;12.00;99.90;;;;;;6153000;23;20009;-79
2023/06/13 01:15:07;;;;;;;4.97;1.77;;;12.00;99.90;;;;;;6153963;23;20021;-78
2023/06/13 01:17:57;;;;;;;4.93;1.98;;;11.90;99.90;;;;;;6148566;23;20043;-79
2023/06/13 01:20:24;;;;;;;4.55;2.03;;;;;;;;;;6153101;23;20004;-78
2023/06/13 01:22:52;;;;;;;4.57;2.25;;;;;;;;;;6153211;23;20001;-80
2023/06/13 01:25:37;;;;;;;4.10;1.95;;;;;;;;;;6155498;23;20025;-79
2023/06/13 01:28:08;;;;;;;4.13;2.35;;;12.00;99.90;;;;;;6151837;23;20092;-77
2023/06/13 01:30:35;;;;;;;7.47;2.10;;;12.00;99.90;;;;;;6151225;23;20450;-77
2023/06/13 01:33:02;;;;;;;4.00;1.88;;;11.80;99.90;;;;;;6125476;23;20018;-78
2023/06/13 01:35:28;;;;;;;4.53;2.05;;;11.70;99.90;;;;;;6151934;23;20074;-78
2023/06/13 01:37:54;;;;;;;6.78;2.50;;;11.90;99.90;;;;;;6150635;23;20005;-80
2023/06/13 01:40:21;;;;;;;5.28;2.30;;;11.60;99.90;;;;;;6150730;23;20001;-78
2023/06/13 01:42:47;;;;;;;4.20;2.35;;;;;;;;;;6153321;23;20422;-78
2023/06/13 01:45:14;;;;;;;5.47;2.30;;;11.70;99.90;;;;;;6151953;23;20648;-79
2023/06/13 01:47:58;;;;;;;3.78;2.03;;;;;;;;;;6153154;23;20076;-79
2023/06/13 01:50:35;;;;;;;3.72;1.65;;;;;;;;;;6150516;23;20072;-78
2023/06/13 01:53:07;;;;;;;8.20;2.75;;;;;;;;;;6152008;23;20017;-76
2023/06/13 01:55:33;;;;;;;8.00;2.47;;;;;;;;;;6150044;23;20695;-79
2023/06/13 01:58:09;;;;;;;3.78;2.28;;;11.70;99.90;;;;;;6147037;23;20344;-79
2023/06/13 02:00:35;;;;;;;3.40;2.08;;;11.50;99.90;;;;;;6146544;23;20072;-79
2023/06/13 02:03:01;;;;;;;2.45;1.45;;;;;;;;;;6147783;23;20006;-78
2023/06/13 02:05:27;;;;;;;4.93;1.92;;;11.40;99.90;;;;;;6150133;23;20009;-79
2023/06/13 02:07:53;;;;;;;4.00;2.35;;;11.40;99.90;;;;;;6148780;23;20013;-78
2023/06/13 02:10:19;;;;;;;4.70;2.60;;;11.40;99.90;;;;;;6149113;23;20017;-77
2023/06/13 02:12:45;;;;;;;3.88;1.90;;;;;;;;;;6148364;23;20447;-78
2023/06/13 02:15:11;;;;;;;5.43;1.95;;;11.30;99.90;;;;;;6146199;23;20427;-78
2023/06/13 02:17:37;;;;;;;4.28;2.55;;;;;;;;;;6153096;23;20084;-79
2023/06/13 02:20:06;;;;;;;3.13;1.92;;;11.00;99.90;;;;;;6152287;23;20009;-79
2023/06/13 02:22:32;;;;;;;5.07;2.20;;;;;;;;;;6153602;23;20405;-79
2023/06/13 02:24:59;;;;;;;5.00;2.40;;;11.20;99.90;;;;;;6150923;23;20080;-79
2023/06/13 02:27:25;;;;;;;5.15;2.53;;;11.10;99.90;;;;;;6149811;23;20031;-79
2023/06/13 02:29:51;;;;;;;5.22;2.65;;;11.10;99.90;;;;;;6149545;23;20021;-79
2023/06/13 02:32:18;;;;;;;5.78;2.20;;;;;;;;;;6148609;23;20016;-76
2023/06/13 02:34:44;;;;;;;4.05;2.05;;;11.00;99.90;;;;;;6148192;23;20542;-77
2023/06/13 02:37:10;;;;;;;4.43;2.08;;;;;;;;;;6152227;23;20010;-79
2023/06/13 02:39:36;;;;;;;3.30;1.63;;;;;;;;;;6152866;23;20430;-80
2023/06/13 02:42:02;;;;;;;6.00;2.28;;;;;;;;;;6148808;23;20056;-79
2023/06/13 02:44:28;;;;;;;5.03;2.30;;;;;;;;;;6146903;23;20024;-78
2023/06/13 02:46:54;;;;;;;4.25;2.08;;;;;;;;;;6150783;23;20439;-78
2023/06/13 02:49:20;;;;;;;4.38;2.05;;;10.80;99.90;;;;;;6152707;23;20010;-78
2023/06/13 02:51:45;;;;;;;7.53;3.05;;;10.80;99.90;;;;;;6153101;23;20071;-81
2023/06/13 02:54:11;;;;;;;3.42;1.70;;;;;;;;;;6151571;23;20012;-77
2023/06/13 02:56:38;;;;;;;4.72;2.33;;;10.50;99.90;;;;;;6151258;23;20077;-80
2023/06/13 02:59:04;;;;;;;4.30;1.92;;;;;;;;;;6150857;23;20109;-78
2023/06/13 03:01:30;;;;;;;2.85;1.55;;;;;;;;;;6150921;23;20014;-78
2023/06/13 03:03:56;;;;;;;4.60;2.03;;;10.70;99.90;;;;;;6148889;23;20355;-79
2023/06/13 03:06:24;;;;;;;4.47;2.22;;;10.70;99.90;;;;;;6149070;23;20056;-77
2023/06/13 03:08:52;;;;;;;8.45;2.50;;;10.50;99.90;;;;;;6153887;23;20049;-78
2023/06/13 03:11:19;;;;;;;2.88;1.67;;;10.30;99.90;;;;;;6153856;23;20029;-79
2023/06/13 03:13:45;;;;;;;4.82;2.20;;;10.60;99.90;;;;;;6152649;23;20013;-80
2023/06/13 03:16:11;;;;;;;4.82;1.63;;;10.70;99.90;;;;;;6150022;23;20002;-78
2023/06/13 03:18:37;;;;;;;5.10;2.45;;;10.60;99.90;;;;;;6150220;23;20076;-76
2023/06/13 03:21:03;;;;;;;6.25;2.72;;;10.50;99.90;;;;;;6149320;23;20823;-79
2023/06/13 03:23:29;;;;;;;5.90;2.35;;;10.70;99.90;;;;;;6148313;23;20354;-78
2023/06/13 03:25:55;;;;;;;4.57;2.92;;;10.40;99.90;;;;;;6148543;23;20006;-79
2023/06/13 03:28:20;;;;;;;3.65;2.28;;;10.60;99.90;;;;;;6125989;23;20088;-79
2023/06/13 03:30:46;;;;;;;4.43;2.17;;;10.30;99.90;;;;;;6150499;23;20005;-77
2023/06/13 03:33:12;;;;;;;5.38;2.13;;;10.70;99.90;;;;;;6150805;23;20002;-79
2023/06/13 03:35:38;;;;;;;3.97;2.42;;;10.50;99.90;;;;;;6152758;23;20077;-79
2023/06/13 03:38:04;;;;;;;6.47;2.85;;;;;;;;;;6150803;23;20040;-79
2023/06/13 03:40:32;;;;;;;4.00;2.10;;;;;;;;;;6150345;23;20081;-79
2023/06/13 03:42:58;;;;;;;3.00;1.95;;;10.60;99.90;;;;;;6148149;23;20335;-79
2023/06/13 03:45:24;;;;;;;5.85;2.03;;;10.40;99.90;;;;;;6149657;23;20007;-79
2023/06/13 03:47:50;;;;;;;3.90;2.15;;;10.50;99.90;;;;;;6152315;23;20005;-80
2023/06/13 03:50:16;;;;;;;3.35;1.83;;;10.40;99.90;;;;;;6154369;23;20435;-80
2023/06/13 03:52:42;;;;;;;3.72;1.98;;;;;;;;;;6150815;23;20049;-79
2023/06/13 03:55:08;;;;;;;5.60;2.63;;;10.50;99.90;;;;;;6152272;23;20085;-79
2023/06/13 03:57:34;;;;;;;5.07;2.25;;;10.40;99.90;;;;;;6151946;23;20075;-76
2023/06/13 04:00:00;;;;;;;4.53;2.42;;;10.70;99.90;;;;;;6146727;23;20109;-78
2023/06/13 04:02:25;;;;;;;4.28;2.33;;;10.30;99.90;;;;;;6146939;23;20077;-78
2023/06/13 04:04:52;;;;;;;11.82;2.42;;;;;;;;;;6149675;23;20385;-81
2023/06/13 04:07:21;;;;;;;4.53;2.15;;;10.70;99.90;;;;;;6146997;23;20297;-82
2023/06/13 04:09:47;;;;;;;5.50;2.10;;;10.60;99.90;;;;;;6148600;23;20025;-80
2023/06/13 04:12:14;;;;;;;3.65;1.80;;;;;;;;;;6149992;23;20029;-77
2023/06/13 04:14:40;;;;;;;4.65;2.40;;;;;;;;;;6146555;23;20005;-78
2023/06/13 04:17:08;;;;;;;4.55;1.90;;;10.80;99.90;;;;;;6149377;23;20620;-78
2023/06/13 04:19:34;;;;;;;3.55;1.98;;;10.80;99.90;;;;;;6154082;23;20085;-79
2023/06/13 04:22:01;;;;;;;4.95;2.38;;;10.50;99.90;;;;;;6149642;23;20006;-77
2023/06/13 04:24:27;;;;;;;3.00;1.88;;;10.60;99.90;;;;;;6151361;23;19998;-78
2023/06/13 04:26:53;;;;;;;4.15;2.22;;;10.80;99.90;;;;;;6149353;23;20006;-80
2023/06/13 04:29:19;;;;;;;7.00;2.55;;;10.70;99.90;;;;;;6153018;23;20002;-78
2023/06/13 04:31:46;;;;;;;8.15;2.45;;;;;;;;;;6156403;23;20426;-79
2023/06/13 04:34:13;;;;;;;3.92;2.17;;;;;;;;;;6151692;23;20002;-79
2023/06/13 04:36:41;;;;;;;4.82;2.05;;;10.90;99.90;;;;;;6152349;23;19997;-80
2023/06/13 04:39:08;;;;;;;5.63;2.10;;;10.90;99.90;;;;;;6149569;23;20645;-75
2023/06/13 04:41:37;;;;;;;3.20;2.08;;;10.80;99.90;;;;;;6150908;23;20343;-80
2023/06/13 04:44:09;;;;;;;3.85;2.17;;;10.90;99.90;;;;;;6119522;23;20017;-80
2023/06/13 04:46:38;;;;;;;3.22;1.67;;;10.90;99.90;;;;;;6143971;23;20009;-79
2023/06/13 04:49:08;;;;;;;6.40;2.92;;;11.00;99.90;;;;;;6145929;23;20013;-79
2023/06/13 04:51:34;;;;;;;3.38;1.63;;;10.90;99.90;;;;;;6148699;23;20005;-80
2023/06/13 04:54:00;;;;;;;3.78;2.20;;;;;;;;;;6149960;23;20032;-80
2023/06/13 04:56:27;;;;;;;4.97;2.08;;;;;;;;;;6154626;23;20001;-80
2023/06/13 04:58:53;;;;;;;4.80;2.30;;;;;;;;;;6155093;23;20028;-80
2023/06/13 05:01:26;;;;;;;5.15;2.17;;;;;;;;;;6154037;23;20562;-80
2023/06/13 05:03:53;;;;;;;2.88;1.75;;;;;;;;;;6151886;23;20072;-80
2023/06/13 05:06:19;;;;;;;2.30;1.58;;;;;;;;;;6152014;23;20006;-80
2023/06/13 05:08:45;;;;;;;4.38;2.15;;;;;;;;;;6155520;23;20040;-81
2023/06/13 05:11:11;;;;;;;3.38;1.65;;;;;;;;;;6155747;23;20032;-77
2023/06/13 05:13:37;;;;;;;4.10;1.60;;;14.20;99.90;;;;;;6155322;23;20005;-80
2023/06/13 05:16:04;;;;;;;6.85;2.80;;;13.90;99.90;;;;;;6156054;23;20006;-78
2023/06/13 05:18:30;;;;;;;4.35;2.10;;;14.30;99.90;;;;;;6154003;23;20067;-78
2023/06/13 05:20:59;;;;;;;4.38;2.08;;;14.30;99.90;;;;;;6152974;23;20001;-79
2023/06/13 05:23:26;;;;;;;8.07;1.80;;;14.50;99.90;;;;;;6153908;23;20006;-77
2023/06/13 05:25:52;;;;;;;2.88;1.55;;;14.90;99.90;;;;;;6151480;23;20036;-79
2023/06/13 05:28:19;;;;;;;3.17;1.73;;;14.70;99.90;;;;;;6154104;23;20010;-79
2023/06/13 05:30:45;;;;;;;3.97;2.10;;;14.70;99.90;;;;;;6155745;23;20017;-81
2023/06/13 05:33:11;;;;;;;4.07;2.10;;;15.00;99.90;;;;;;6151002;23;20062;-78
2023/06/13 05:35:37;;;;;;;6.22;1.75;;;15.20;99.90;;;;;;6150301;23;20017;-78
2023/06/13 05:38:02;;;;;;;3.63;2.00;;;15.00;99.90;;;;;;6153441;23;20132;-80
2023/06/13 05:40:28;;;;;;;6.80;1.85;;;15.40;99.90;;;;;;6154909;23;20041;-80
2023/06/13 05:42:53;;;;;;;4.07;1.58;;;15.70;99.90;;;;;;6154005;23;19998;-79
2023/06/13 05:45:21;;;;;;;4.80;1.67;;;15.30;99.90;;;;;;6155026;23;20443;-79
2023/06/13 05:47:46;;;;;;;3.78;2.22;;;15.80;99.90;;;;;;6154589;23;20010;-79
2023/06/13 05:50:12;;;;;;;4.05;1.67;;;;;;;;;;6152171;23;20068;-80
2023/06/13 05:52:38;;;;;;;3.65;1.88;;;16.20;99.90;;;;;;6152190;23;20037;-80
2023/06/13 05:55:04;;;;;;;3.33;1.52;;;;;;;;;;6155152;23;20002;-80
2023/06/13 05:57:45;;;;;;;3.83;1.88;;;;;;;;;;6152106;23;20095;-80
2023/06/13 06:00:13;;;;;;;3.17;1.70;;;18.30;99.90;;;;;;6153671;23;20008;-81
2023/06/13 06:02:43;;;;;;;3.88;1.90;;;19.60;99.90;;;;;;6154316;23;20021;-80
2023/06/13 06:05:09;;;;;;;4.40;1.45;;;20.60;99.90;;;;;;6153050;23;20006;-80
2023/06/13 06:07:38;;;;;;;3.13;1.40;;;;;;;;;;6155613;23;20036;-79
2023/06/13 06:10:07;;;;;;;4.15;1.10;;;23.00;99.90;;;;;;6156372;23;20533;-81
2023/06/13 06:12:33;;;;;;;3.22;1.27;;;;;;;;;;6155267;23;20316;-79
2023/06/13 06:15:00;;;;;;;4.68;1.27;;;24.30;98.60;;;;;;6155697;23;20029;-81
2023/06/13 06:17:26;;;;;;;2.85;1.83;;;25.20;95.90;;;;;;6155463;23;20433;-81
2023/06/13 06:19:52;;;;;;;2.40;1.10;;;;;;;;;;6154509;23;20045;-81
2023/06/13 06:22:18;;;;;;;2.33;1.13;;;;;;;;;;6153620;23;20001;-81
2023/06/13 06:24:44;;;;;;;3.60;1.52;;;;;;;;;;6156351;23;20423;-80
2023/06/13 06:27:11;;;;;;;4.28;1.42;;;;;;;;;;6155863;23;20073;-82
2023/06/13 06:29:37;;;;;;;1.60;0.85;;;;;;;;;;6157606;23;20008;-83
2023/06/13 06:32:03;;;;;;;2.75;1.38;;;;;;;;;;6157663;23;20005;-81
2023/06/13 06:34:28;;;;;;;1.73;1.00;;;34.00;69.70;;;;;;6157167;23;20068;-82
2023/06/13 06:36:54;;;;;;;3.10;1.30;;;35.00;67.90;;;;;;6156069;23;20016;-78
2023/06/13 06:39:20;;;;;;;4.35;1.42;;;;;;;;;;6153674;23;20028;-80
2023/06/13 06:41:46;;;;;;;4.75;1.13;;;;;;;;;;6154142;23;20453;-78
2023/06/13 06:44:11;;;;;;;3.25;1.23;;;35.10;68.60;;;;;;6154290;23;20068;-80
2023/06/13 06:46:37;;;;;;;3.35;1.30;;;35.20;66.60;;;;;;6156993;23;20445;-80
2023/06/13 06:49:02;;;;;;;2.80;1.65;;;35.70;63.10;;;;;;6156294;23;20387;-82
2023/06/13 06:51:29;;;;;;;2.70;1.10;;;37.10;67.40;;;;;;6154482;23;20439;-81
2023/06/13 06:53:56;;;;;;;1.75;0.95;;;37.30;63.60;;;;;;6158535;23;20009;-81
2023/06/13 06:56:22;;;;;;;6.13;1.27;;;38.10;63.80;;;;;;6156555;23;20045;-79
2023/06/13 06:58:48;;;;;;;2.58;1.05;;;38.20;64.50;;;;;;6155312;23;20002;-80
2023/06/13 07:01:15;;;;;;;2.25;1.13;;;38.90;63.20;;;;;;6156742;23;20013;-81
2023/06/13 07:03:41;;;;;;;7.47;1.50;;;38.30;65.70;;;;;;6157141;23;20013;-80
2023/06/13 07:06:07;;;;;;;1.58;0.93;;;37.40;64.90;;;;;;6155373;23;20323;-78
2023/06/13 07:08:33;;;;;;;2.60;1.33;;;37.00;62.50;;;;;;6156253;23;20013;-81
2023/06/13 07:11:01;;;;;;;2.42;1.10;;;37.00;63.00;;;;;;6155887;23;20116;-80
2023/06/13 07:13:26;;;;;;;2.90;1.00;;;37.60;60.30;;;;;;6156314;23;20005;-80
2023/06/13 07:15:52;;;;;;;2.67;0.73;;;36.60;65.00;;;;;;6154996;23;20088;-78
2023/06/13 07:18:17;;;;;;;1.70;0.80;;;35.60;86.90;;;;;;6155783;23;20052;-78
2023/06/13 07:20:45;;;;;;;2.75;1.50;;;35.70;66.70;;;;;;6154943;23;20013;-79
2023/06/13 07:23:12;;;;;;;3.47;1.20;;;34.60;65.70;;;;;;6155092;23;20001;-80
2023/06/13 07:25:40;;;;;;;3.75;1.08;;;34.00;72.00;;;;;;6153822;23;20007;-80
2023/06/13 07:28:09;;;;;;;2.05;1.30;;;33.20;91.40;;;;;;6154337;23;20374;-81
2023/06/13 07:30:35;;;;;;;4.30;1.15;;;32.70;91.00;;;;;;6152127;23;20089;-79
2023/06/13 07:33:01;;;;;;;3.70;1.15;;;32.60;74.70;;;;;;6153638;23;20012;-79
2023/06/13 07:35:26;;;;;;;2.05;1.13;;;32.30;72.00;;;;;;6153663;23;20005;-81
2023/06/13 07:37:53;;;;;;;4.88;1.58;;;31.90;71.90;;;;;;6155792;23;20315;-77
2023/06/13 07:40:21;;;;;;;2.03;1.08;;;30.70;67.90;;;;;;6156774;23;20324;-79
2023/06/13 07:42:48;;;;;;;3.30;0.82;;;;;;;;;;6156027;23;20014;-77
2023/06/13 07:45:14;;;;;;;3.30;1.27;;;30.60;69.60;;;;;;6159124;23;20037;-80
2023/06/13 07:47:40;;;;;;;3.53;1.33;;;;;;;;;;6156558;23;20001;-79
2023/06/13 07:50:06;;;;;;;1.83;1.20;;;30.90;64.20;;;;;;6157440;23;20021;-78
2023/06/13 07:52:32;;;;;;;3.90;0.90;;;;;;;;;;6155999;23;20001;-78
2023/06/13 07:54:58;;;;;;;2.63;1.30;;;32.80;61.50;;;;;;6156725;23;20016;-79
2023/06/13 07:57:24;;;;;;;2.15;0.98;;;;;;;;;;6157725;23;20439;-79
2023/06/13 07:59:50;;;;;;;3.83;1.02;;;33.00;62.20;;;;;;6157766;23;20009;-80
2023/06/13 08:02:16;;;;;;;3.03;1.60;;;32.90;63.10;;;;;;6155893;23;20320;-78
2023/06/13 08:04:42;;;;;;;3.65;1.25;;;;;;;;;;6156186;23;20002;-79
2023/06/13 08:07:09;;;;;;;3.00;0.90;;;31.30;84.60;;;;;;6157039;23;20089;-79
2023/06/13 08:09:37;;;;;;;2.13;1.30;;;;;;;;;;6154211;23;20005;-81
2023/06/13 08:12:03;;;;;;;2.60;1.10;;;30.60;67.60;;;;;;6154522;23;20012;-79
2023/06/13 08:14:29;;;;;;;8.52;1.48;;;30.00;68.60;;;;;;6152464;23;20084;-81
2023/06/13 08:16:55;;;;;;;3.03;1.30;;;;;;;;;;6151582;23;20033;-78
2023/06/13 08:19:21;;;;;;;3.08;1.35;;;28.40;82.70;;;;;;6155405;23;20230;-78
2023/06/13 08:21:47;;;;;;;3.38;1.23;;;28.20;85.50;;;;;;6157714;23;20232;-80
2023/06/13 08:24:13;;;;;;;4.93;1.30;;;28.50;84.70;;;;;;6155342;23;20029;-81
2023/06/13 08:26:39;;;;;;;3.20;1.25;;;28.40;82.90;;;;;;6156940;23;20013;-78
2023/06/13 08:29:05;;;;;;;2.45;1.25;;;28.10;83.90;;;;;;6155668;23;20387;-80
2023/06/13 08:31:33;;;;;;;3.53;1.05;;;27.80;84.80;;;;;;6154823;23;20033;-79
2023/06/13 08:33:59;;;;;;;2.33;1.33;;;27.60;84.20;;;;;;6153619;23;20497;-79
2023/06/13 08:36:25;;;;;;;2.90;1.17;;;27.70;84.10;;;;;;6154984;23;20351;-79
2023/06/13 08:38:52;;;;;;;2.22;1.30;;;28.40;83.70;;;;;;6155944;23;20279;-79
2023/06/13 08:41:18;;;;;;;3.03;1.33;;;29.70;78.40;;;;;;6157061;23;20073;-81
2023/06/13 08:43:45;;;;;;;7.38;1.40;;;31.70;74.20;;;;;;6155284;23;20044;-81
2023/06/13 08:46:11;;;;;;;3.33;1.33;;;31.50;74.30;;;;;;6155203;23;20005;-79
2023/06/13 08:48:37;;;;;;;8.38;1.40;;;33.60;71.30;;;;;;6154683;23;20009;-78
2023/06/13 08:51:04;;;;;;;2.47;1.23;;;34.50;73.70;;;;;;6156008;23;20331;-82
2023/06/13 08:53:32;;;;;;;1.77;0.88;;;34.20;56.20;;;;;;6130423;23;20016;-81
2023/06/13 08:56:06;;;;;;;2.03;0.98;;;34.40;56.80;;;;;;6157403;23;20012;-80
2023/06/13 08:58:38;;;;;;;3.53;1.80;;;35.90;66.50;;;;;;6156385;23;20347;-79
2023/06/13 09:01:05;;;;;;;;;;;36.50;65.40;;;;;;6155998;23;20068;-79
2023/06/13 09:03:32;;;;;;;2.95;0.93;;;37.10;64.70;;;;;;6157512;23;20311;-78
2023/06/13 09:06:00;;;;;;;1.73;0.98;;;38.00;82.70;;;;;;6155045;23;20005;-79
2023/06/13 09:08:28;;;;;;;3.90;1.30;;;38.00;62.10;;;;;;6157164;23;20068;-80
2023/06/13 09:10:58;;;;;;;2.63;1.45;;;37.30;62.00;;;;;;6157323;23;20064;-81
2023/06/13 09:13:24;;;;;;;2.60;0.95;;;37.30;62.60;;;;;;6155696;23;20024;-80
2023/06/13 09:15:50;;;;;;;3.50;1.42;;;37.00;63.60;;;;;;6156719;23;20044;-81
2023/06/13 09:18:17;;;;;;;3.03;1.38;;;37.60;83.10;;;;;;6158662;23;20009;-80
2023/06/13 09:20:44;;;;;;;2.92;1.35;;;37.30;63.20;;;;;;6157835;23;19997;-78
2023/06/13 09:23:15;;;;;;;3.45;0.90;;;37.40;65.00;;;;;;6157590;23;20004;-79
2023/06/13 09:25:44;;;;;;;1.90;1.08;;;37.00;66.60;;;;;;6158006;23;20001;-80
2023/06/13 09:28:39;;;;;;;2.22;0.95;;;35.20;87.90;;;;;;6156908;23;20029;-81
2023/06/13 09:31:10;;;;;;;5.78;0.98;;;33.20;79.80;;;;;;6155270;23;20006;-80
2023/06/13 09:33:36;;;;;;;2.15;0.90;;;32.60;65.50;;;;;;6157757;23;20006;-81
2023/06/13 09:36:02;;;;;;;2.53;1.30;;;;;;;;;;6156943;23;20366;-81
2023/06/13 09:38:29;;;;;;;2.50;0.85;;;30.70;69.10;;;;;;6155834;23;20009;-81
2023/06/13 09:40:56;;;;;;;2.55;1.15;;;28.20;62.60;;;;;;6156787;23;19997;-80
2023/06/13 09:43:23;;;;;;;2.75;1.15;;;27.70;66.20;;;;;;6157203;23;20044;-79
2023/06/13 09:45:49;;;;;;;4.70;1.30;;;;;;;;;;6155171;23;20002;-79
2023/06/13 09:48:15;;;;;;;4.10;1.63;;;27.80;64.50;;;;;;6156287;23;20010;-79
2023/06/13 09:50:42;;;;;;;4.75;1.45;;;27.30;65.80;;;;;;6155746;23;20012;-78
2023/06/13 09:53:08;;;;;;;2.08;1.15;;;26.70;90.70;;;;;;6155583;23;20181;-81
2023/06/13 09:55:35;;;;;;;6.43;1.27;;;26.80;72.90;;;;;;6153420;23;20001;-80
2023/06/13 09:58:01;;;;;;;3.63;1.10;;;26.50;77.80;;;;;;6155271;23;20001;-80
2023/06/13 10:00:28;;;;;;;6.10;1.80;;;26.30;76.60;;;;;;6154233;23;20424;-79
2023/06/13 10:02:54;;;;;;;11.98;2.00;;;25.90;80.70;;;;;;6154041;23;20128;-79
2023/06/13 10:05:20;;;;;;;5.63;2.92;;;25.80;80.50;;;;;;6156127;23;20462;-81
2023/06/13 10:07:46;;;;;;;3.00;1.30;;;25.60;85.10;;;;;;6153630;23;20387;-81
2023/06/13 10:10:13;;;;;;;2.50;1.17;;;25.90;84.60;;;;;;6152631;23;20009;-80
2023/06/13 10:12:44;;;;;;;2.67;1.20;;;25.50;96.30;;;;;;6154587;23;20005;-81
2023/06/13 10:15:12;;;;;;;1.77;1.35;;;25.30;84.10;;;;;;6154993;23;20010;-80
2023/06/13 10:17:41;;;;;;;3.40;1.58;;;25.40;85.90;;;;;;6151362;23;20026;-80
2023/06/13 10:20:10;;;;;;;5.78;1.50;;;25.00;87.60;;;;;;6153868;23;20501;-80
2023/06/13 10:22:38;;;;;;;2.70;1.17;;;25.00;87.70;;;;;;6154720;23;19998;-78
2023/06/13 10:25:07;;;;;;;3.53;1.40;;;24.90;88.30;;;;;;6153873;23;20009;-79
2023/06/13 10:27:36;;;;;;;2.35;1.40;;;24.80;87.50;;;;;;6154553;23;20002;-79
2023/06/13 10:30:17;;;;;;;6.07;1.13;;;25.10;88.50;;;;;;6156396;23;20081;-79
2023/06/13 10:33:19;;;;;;;3.72;1.55;;;24.90;86.60;;;;;;6154393;23;20001;-79
2023/06/13 10:36:03;;;;;;;5.65;1.23;;;25.00;88.50;;;;;;6152619;23;20009;-78
2023/06/13 10:38:33;;;;;;;2.63;1.13;;;;;;;;;;6153606;23;20056;-80
2023/06/13 10:41:35;;;;;;;6.70;1.33;;;25.10;86.60;;;;;;6154361;23;20468;-81
2023/06/13 10:44:10;;;;;;;2.20;1.33;;;25.00;85.00;;;;;;6155041;23;20013;-79
2023/06/13 10:46:37;;;;;;;2.95;1.80;;;24.90;87.90;;;;;;6156045;23;20033;-79
2023/06/13 10:49:02;;;;;;;6.82;1.42;;;24.90;87.80;;;;;;6153612;23;20381;-78
2023/06/13 10:51:31;;;;;;;5.13;1.70;;;24.90;88.40;;;;;;6153792;23;20069;-77
2023/06/13 10:54:08;;;;;;;8.63;1.35;;;24.90;88.50;;;;;;6156765;23;20077;-79
2023/06/13 10:56:37;;;;;;;2.92;0.98;;;24.70;87.60;;;;;;6154235;23;20013;-78
2023/06/13 10:59:16;;;;;;;3.58;1.52;;;24.60;88.50;;;;;;6156484;23;20009;-78
2023/06/13 11:01:43;;;;;;;1.52;1.05;;;24.70;90.40;;;;;;6155707;23;20052;-77
2023/06/13 11:04:12;;;;;;;2.97;1.38;;;24.50;90.90;;;;;;6153294;23;20189;-79
2023/06/13 11:06:39;;;;;;;5.50;1.70;;;24.80;90.90;;;;;;6155699;23;20006;-79
2023/06/13 11:09:23;;;;;;;4.40;1.13;;;25.00;90.90;;;;;;6153635;23;20037;-79
2023/06/13 11:12:11;;;;;;;1.88;1.67;;;24.90;90.30;;;;;;6153356;23;20009;-80
2023/06/13 11:14:38;;;;;;;6.65;1.60;;;25.30;91.10;;;;;;6156576;23;20009;-80
2023/06/13 11:17:05;;;;;;;3.00;1.52;;;25.00;89.40;;;;;;6151379;23;20173;-78
2023/06/13 11:19:33;;;;;;;3.92;1.58;;;24.70;89.50;;;;;;6152813;23;20012;-78
2023/06/13 11:22:03;;;;;;;2.38;1.05;;;25.00;90.30;;;;;;6156137;23;20022;-80
2023/06/13 11:24:30;;;;;;;3.28;1.63;;;24.50;90.10;;;;;;6151204;23;20002;-77
2023/06/13 11:26:57;;;;;;;2.40;1.30;;;24.70;91.50;;;;;;6156841;23;20084;-78
2023/06/13 11:29:23;;;;;;;2.92;1.63;;;24.70;90.90;;;;;;6154883;23;20036;-79
2023/06/13 11:31:53;;;;;;;5.05;1.23;;;24.90;90.80;;;;;;6155374;23;19998;-80
2023/06/13 11:34:23;;;;;;;3.97;1.15;;;24.90;90.70;;;;;;6153499;23;20006;-79
2023/06/13 11:36:54;;;;;;;2.65;1.50;;;25.10;91.10;;;;;;6156680;23;20331;-79
2023/06/13 11:39:30;;;;;;;3.70;1.30;;;25.10;90.00;;;;;;6155658;23;20005;-79
2023/06/13 11:41:57;;;;;;;3.10;1.55;;;25.30;90.40;;;;;;6157942;23;20037;-78
2023/06/13 11:44:23;;;;;;;3.08;1.67;;;;;;;;;;6157454;23;20034;-80
2023/06/13 11:46:50;;;;;;;4.32;1.42;;;25.10;87.30;;;;;;6154069;23;20009;-80
2023/06/13 11:49:18;;;;;;;6.53;1.73;;;25.40;90.50;;;;;;6156457;23;20006;-79
2023/06/13 11:51:44;;;;;;;4.32;1.23;;;25.20;88.70;;;;;;6157415;23;20083;-78
2023/06/13 11:54:11;;;;;;;6.18;1.48;;;25.10;90.00;;;;;;6157014;23;20084;-79
2023/06/13 11:56:49;;;;;;;4.57;1.80;;;25.40;91.10;;;;;;6156314;23;20010;-79
2023/06/13 11:59:18;;;;;;;6.72;1.35;;;25.30;90.20;;;;;;6107137;23;20045;-78
2023/06/13 12:01:54;;;;;;;5.07;1.42;;;25.60;90.40;;;;;;6157398;23;19998;-78
2023/06/13 12:04:25;;;;;;;10.98;1.40;;;25.60;89.00;;;;;;6155606;23;20172;-80
2023/06/13 12:06:52;;;;;;;2.22;1.10;;;25.20;88.20;;;;;;6154771;23;20497;-79
2023/06/13 12:09:19;;;;;;;3.15;1.58;;;23.80;86.30;;;;;;6156327;23;20059;-79
2023/06/13 12:11:45;;;;;;;4.55;1.63;;;25.30;88.30;;;;;;6156089;23;20004;-80
2023/06/13 12:14:10;;;;;;;2.67;1.23;;;25.30;86.90;;;;;;6157936;23;20025;-80
2023/06/13 12:16:37;;;;;;;5.43;1.10;;;25.10;87.20;;;;;;6147160;23;20006;-78
2023/06/13 12:19:05;;;;;;;5.07;1.23;;;25.50;87.90;;;;;;6148644;23;20454;-79
2023/06/13 12:21:33;;;;;;;2.30;1.48;;;25.30;87.70;;;;;;6154457;23;20048;-76
2023/06/13 12:24:04;;;;;;;4.75;1.50;;;25.40;86.80;;;;;;6155310;23;20005;-78
2023/06/13 12:26:33;;;;;;;2.35;1.30;;;25.40;86.80;;;;;;6151801;23;20006;-76
2023/06/13 12:29:07;;;;;;;2.75;1.15;;;25.40;87.90;;;;;;6149485;23;20005;-79
2023/06/13 12:31:36;;;;;;;8.88;1.65;;;25.50;86.50;;;;;;6149927;23;20448;-76
2023/06/13 12:34:08;;;;;;;3.38;1.45;;;25.50;86.60;;;;;;6155591;23;20005;-78
2023/06/13 12:36:44;;;;;;;5.93;1.05;;;25.20;81.40;;;;;;6157456;23;20013;-78
2023/06/13 12:39:13;;;;;;;2.72;1.45;;;25.50;85.30;;;;;;6153846;23;20009;-80
2023/06/13 12:41:46;;;;;;;7.10;1.50;;;25.40;86.30;;;;;;6156469;23;20157;-78
2023/06/13 12:44:14;;;;;;;3.30;1.40;;;25.10;85.80;;;;;;6157935;23;20005;-80
2023/06/13 12:46:40;;;;;;;4.40;1.20;;;25.10;86.40;;;;;;6154651;23;20053;-81
2023/06/13 12:49:08;;;;;;;5.07;1.30;;;25.20;89.50;;;;;;6156238;23;20009;-79
2023/06/13 12:51:34;;;;;;;5.85;1.13;;;25.10;88.40;;;;;;6157334;23;20005;-78
2023/06/13 12:54:16;;;;;;;2.95;1.55;;;25.30;81.40;;;;;;6156895;23;20451;-79
2023/06/13 12:57:00;;;;;;;1.90;1.00;;;25.40;84.10;;;;;;6156549;23;19994;-80
2023/06/13 12:59:41;;;;;;;3.65;1.20;;;25.60;81.80;;;;;;6154101;23;20001;-77
2023/06/13 13:02:10;;;;;;;4.95;1.77;;;25.60;87.80;;;;;;6152409;23;20031;-78
2023/06/13 13:04:37;;;;;;;5.78;1.15;;;25.70;88.30;;;;;;6151589;23;20439;-77
2023/06/13 13:07:04;;;;;;;5.63;2.00;;;25.90;87.50;;;;;;6145174;23;20010;-75
2023/06/13 13:09:31;;;;;;;4.22;1.40;;;25.60;85.20;;;;;;6145360;23;20435;-79
2023/06/13 13:11:57;;;;;;;6.00;1.45;;;25.50;85.70;;;;;;6152871;23;20084;-79